createdAt,value
2017-02-23T00:01:43.041Z,20.39
2017-02-23T00:06:59.472Z,20.4
2017-02-23T00:12:15.070Z,20.39
2017-02-23T00:17:31.798Z,20.41
2017-02-23T00:22:47.520Z,20.48
2017-02-23T00:28:04.334Z,20.47
2017-02-23T00:33:20.180Z,20.43
2017-02-23T00:38:35.775Z,20.44
2017-02-23T00:43:51.785Z,20.34
2017-02-23T00:49:09.864Z,20.22
2017-02-23T00:54:25.777Z,20.19
2017-02-23T00:59:41.963Z,20.22
2017-02-23T01:04:57.636Z,20.13
2017-02-23T01:10:13.327Z,20.11
2017-02-23T01:15:29.901Z,20.19
2017-02-23T01:20:46.326Z,20.13
2017-02-23T01:26:02.006Z,20.19
2017-02-23T01:31:17.581Z,20.07
2017-02-23T01:36:33.708Z,20.19
2017-02-23T01:41:49.575Z,20.07
2017-02-23T01:47:05.173Z,20
2017-02-23T01:52:20.880Z,20.09
2017-02-23T01:57:36.451Z,20.1
2017-02-23T02:02:52.456Z,20.14
2017-02-23T02:08:08.152Z,20.02
2017-02-23T02:13:24.137Z,19.96
2017-02-23T02:18:40.107Z,19.95
2017-02-23T02:23:55.675Z,19.95
2017-02-23T02:29:11.226Z,19.94
2017-02-23T02:34:26.852Z,20
2017-02-23T02:39:42.968Z,19.96
2017-02-23T02:44:58.982Z,19.95
2017-02-23T02:50:14.570Z,19.92
2017-02-23T02:55:30.138Z,19.95
2017-02-23T03:00:45.743Z,19.99
2017-02-23T03:06:01.351Z,19.85
2017-02-23T03:11:17.506Z,19.96
2017-02-23T03:16:33.265Z,19.95
2017-02-23T03:21:48.834Z,19.95
2017-02-23T03:27:04.405Z,19.86
2017-02-23T03:32:20.202Z,19.92
2017-02-23T03:37:35.939Z,19.88
2017-02-23T03:42:51.954Z,19.92
2017-02-23T03:48:09.057Z,19.91
2017-02-23T03:53:25.185Z,19.91
2017-02-23T03:58:40.806Z,19.91
2017-02-23T04:03:56.664Z,19.71
2017-02-23T04:09:12.253Z,19.85
2017-02-23T04:14:28.004Z,19.84
2017-02-23T04:19:43.605Z,19.84
2017-02-23T04:24:59.243Z,19.74
2017-02-23T04:30:15.508Z,19.79
2017-02-23T04:35:31.335Z,19.73
2017-02-23T04:40:46.916Z,19.73
2017-02-23T04:46:02.481Z,19.76
2017-02-23T04:51:18.074Z,19.76
2017-02-23T04:56:33.639Z,19.62
2017-02-23T05:01:49.243Z,19.76
2017-02-23T05:07:04.899Z,19.73
2017-02-23T05:12:20.551Z,19.64
2017-02-23T05:17:36.133Z,19.64
2017-02-23T05:22:51.756Z,19.63
2017-02-23T05:28:07.362Z,19.59
2017-02-23T05:33:23.809Z,19.67
2017-02-23T05:38:39.589Z,19.64
2017-02-23T05:43:55.153Z,19.64
2017-02-23T05:49:10.747Z,19.62
2017-02-23T05:54:26.376Z,19.54
2017-02-23T05:59:42.829Z,19.62
2017-02-23T06:04:58.415Z,19.59
2017-02-23T06:10:14.001Z,19.44
2017-02-23T06:15:29.577Z,19.48
2017-02-23T06:20:45.173Z,19.52
2017-02-23T06:26:00.756Z,19.49
2017-02-23T06:31:16.368Z,19.49
2017-02-23T06:36:32.186Z,19.48
2017-02-23T06:41:49.149Z,19.47
2017-02-23T06:47:05.417Z,19.51
2017-02-23T06:52:21.135Z,19.37
2017-02-23T06:57:36.750Z,19.41
2017-02-23T07:02:52.356Z,19.4
2017-02-23T07:08:07.984Z,19.47
2017-02-23T07:13:24.010Z,19.37
2017-02-23T07:18:40.220Z,19.39
2017-02-23T07:23:55.804Z,19.34
2017-02-23T07:29:11.378Z,19.44
2017-02-23T07:34:26.982Z,19.36
2017-02-23T07:39:42.664Z,19.39
2017-02-23T07:44:58.475Z,19.34
2017-02-23T07:50:14.146Z,19.31
2017-02-23T07:55:29.719Z,19.33
2017-02-23T08:00:45.291Z,19.33
2017-02-23T08:06:01.059Z,19.3
2017-02-23T08:11:16.655Z,19.29
2017-02-23T08:16:33.118Z,19.36
2017-02-23T08:21:49.040Z,19.41
2017-02-23T08:27:05.493Z,19.52
2017-02-23T08:32:21.973Z,19.52
2017-02-23T08:37:37.703Z,19.55
2017-02-23T08:42:53.518Z,19.52
2017-02-23T08:48:09.160Z,19.7
2017-02-23T08:53:25.314Z,19.77
2017-02-23T08:58:42.643Z,19.88
2017-02-23T09:03:59.165Z,19.99
2017-02-23T09:09:14.738Z,19.92
2017-02-23T09:14:30.333Z,20.13
2017-02-23T09:19:45.933Z,20.4
2017-02-23T09:25:01.526Z,20.5
2017-02-23T09:30:18.039Z,20.7
2017-02-23T09:35:34.145Z,20.9
2017-02-23T09:40:49.807Z,21.25
2017-02-23T09:46:05.645Z,21.32
2017-02-23T09:51:21.301Z,21.79
2017-02-23T09:56:37.021Z,22.2
2017-02-23T10:01:53.303Z,23.44
2017-02-23T10:07:10.232Z,24.57
2017-02-23T10:12:26.135Z,25.16
2017-02-23T10:17:42.486Z,25.62
2017-02-23T10:22:58.097Z,25.98
2017-02-23T10:28:13.719Z,26.26
2017-02-23T10:33:29.895Z,26.22
2017-02-23T10:38:46.075Z,26.22
2017-02-23T10:44:01.711Z,26.93
2017-02-23T10:49:17.770Z,27.08
2017-02-23T10:54:34.131Z,27.27
2017-02-23T10:59:50.106Z,27.47
2017-02-23T11:05:06.456Z,27.78
2017-02-23T11:10:22.282Z,28.11
2017-02-23T11:15:37.917Z,28.39
2017-02-23T11:20:54.709Z,26.55
2017-02-23T11:26:10.442Z,26.48
2017-02-23T11:31:27.107Z,28.08
2017-02-23T11:36:44.204Z,28.89
2017-02-23T11:41:59.835Z,27.78
2017-02-23T11:47:15.473Z,28.23
2017-02-23T11:52:31.992Z,28.23
2017-02-23T11:57:48.215Z,25.72
2017-02-23T12:03:03.896Z,24.63
2017-02-23T12:08:19.531Z,24.03
2017-02-23T12:13:35.681Z,23.78
2017-02-23T12:18:51.349Z,24.11
2017-02-23T12:24:06.999Z,23.48
2017-02-23T12:29:23.473Z,23.13
2017-02-23T12:34:39.598Z,23.03
2017-02-23T12:39:56.576Z,23.65
2017-02-23T12:45:13.220Z,23.55
2017-02-23T12:50:28.840Z,23.15
2017-02-23T12:55:45.753Z,23.03
2017-02-23T13:01:01.671Z,23.87
2017-02-23T13:06:17.463Z,23.12
2017-02-23T13:11:33.063Z,22.69
2017-02-23T13:16:48.676Z,22.66
2017-02-23T13:22:04.514Z,22.5
2017-02-23T13:27:21.648Z,22.5
2017-02-23T13:32:38.189Z,22.39
2017-02-23T13:37:53.931Z,22.44
2017-02-23T13:43:09.537Z,22.25
2017-02-23T13:48:25.163Z,22.17
2017-02-23T13:53:42.848Z,22.28
2017-02-23T13:58:59.308Z,22.06
2017-02-23T14:04:16.820Z,22.1
2017-02-23T14:09:34.236Z,22.22
2017-02-23T14:14:49.973Z,22.08
2017-02-23T14:20:08.235Z,21.98
2017-02-23T14:25:24.541Z,21.83
2017-02-23T14:30:40.896Z,21.77
2017-02-23T14:35:56.828Z,21.7
2017-02-23T14:41:13.090Z,21.55
2017-02-23T14:46:30.719Z,21.57
2017-02-23T14:51:47.270Z,21.6
2017-02-23T14:57:03.596Z,21.54
2017-02-23T15:02:19.193Z,21.57
2017-02-23T15:07:36.127Z,21.52
2017-02-23T15:12:51.860Z,21.52
2017-02-23T15:18:07.492Z,21.51
2017-02-23T15:23:26.098Z,21.54
2017-02-23T15:28:42.599Z,21.92
2017-02-23T15:33:59.617Z,21.89
2017-02-23T15:39:15.619Z,22.06
2017-02-23T15:44:31.427Z,21.99
2017-02-23T15:49:47.429Z,21.95
2017-02-23T15:55:03.225Z,21.91
2017-02-23T16:00:18.854Z,21.82
2017-02-23T16:05:36.453Z,21.69
2017-02-23T16:10:52.395Z,21.64
2017-02-23T16:16:08.004Z,21.58
2017-02-23T16:21:23.790Z,21.57
2017-02-23T16:26:42.158Z,21.52
2017-02-23T16:31:57.886Z,21.5
2017-02-23T16:37:15.698Z,21.46
2017-02-23T16:42:35.166Z,21.43
2017-02-23T16:47:54.339Z,21.35
2017-02-23T16:53:11.960Z,21.32
2017-02-23T16:58:29.608Z,21.27
2017-02-23T17:03:46.717Z,21.15
2017-02-23T17:09:03.992Z,21.06
2017-02-23T17:14:20.016Z,21.03
2017-02-23T17:19:37.699Z,20.96
2017-02-23T17:24:54.123Z,20.87
2017-02-23T17:30:10.267Z,20.84
2017-02-23T17:35:28.734Z,20.81
2017-02-23T17:40:46.471Z,20.82
2017-02-23T17:46:02.766Z,20.78
2017-02-23T17:51:18.538Z,20.8
2017-02-23T17:56:34.392Z,20.74
2017-02-23T18:01:50.150Z,20.74
2017-02-23T18:07:07.248Z,20.66
2017-02-23T18:12:23.773Z,20.66
2017-02-23T18:17:41.338Z,20.69
2017-02-23T18:22:57.370Z,20.65
2017-02-23T18:28:13.053Z,20.65
2017-02-23T18:33:29.360Z,20.59
2017-02-23T18:38:45.794Z,20.62
2017-02-23T18:44:02.117Z,20.5
2017-02-23T18:49:18.651Z,20.5
2017-02-23T18:54:35.048Z,20.43
2017-02-23T18:59:51.939Z,20.51
2017-02-23T19:05:10.801Z,20.44
2017-02-23T19:10:28.516Z,20.48
2017-02-23T19:15:45.040Z,20.44
2017-02-23T19:21:00.720Z,20.4
2017-02-23T19:26:16.562Z,20.41
2017-02-23T19:31:33.441Z,20.39
2017-02-23T19:36:51.285Z,20.39
2017-02-23T19:42:08.428Z,20.34
2017-02-23T19:47:25.793Z,20.26
2017-02-23T19:52:45.044Z,20.22
2017-02-23T19:58:01.374Z,20.24
2017-02-23T20:03:17.220Z,20.19
2017-02-23T20:08:35.911Z,20.29
2017-02-23T20:13:52.539Z,20.21
2017-02-23T20:19:09.883Z,20.24
2017-02-23T20:24:28.379Z,20.29
2017-02-23T20:29:49.211Z,20.22
2017-02-23T20:35:05.026Z,20.21
2017-02-23T20:40:22.673Z,20.28
2017-02-23T20:45:39.275Z,20.44
2017-02-23T20:50:57.203Z,20.37
2017-02-23T20:56:14.150Z,20.29
2017-02-23T21:01:30.356Z,20.34
2017-02-23T21:06:50.215Z,20.26
2017-02-23T21:12:06.295Z,20.25
2017-02-23T21:17:24.569Z,20.31
2017-02-23T21:22:41.716Z,20.1
2017-02-23T21:27:57.517Z,20.19
2017-02-23T21:33:14.101Z,20.07
2017-02-23T21:38:32.727Z,20
2017-02-23T21:43:50.630Z,20
2017-02-23T21:49:07.442Z,20.03
2017-02-23T21:54:25.976Z,19.96
2017-02-23T21:59:44.212Z,20.02
2017-02-23T22:05:00.490Z,19.94
2017-02-23T22:10:17.261Z,19.95
2017-02-23T22:15:36.374Z,19.88
2017-02-23T22:20:54.587Z,19.95
2017-02-23T22:26:10.359Z,19.88
2017-02-23T22:31:30.666Z,19.85
2017-02-23T22:36:47.279Z,19.86
2017-02-23T22:42:03.835Z,19.88
2017-02-23T22:47:23.156Z,19.91
2017-02-23T22:52:40.209Z,19.95
2017-02-23T22:57:56.890Z,19.95
2017-02-23T23:03:14.125Z,19.99
2017-02-23T23:08:31.746Z,20.04
2017-02-23T23:13:48.818Z,19.94
2017-02-23T23:19:04.999Z,19.96
2017-02-23T23:24:20.584Z,19.85
2017-02-23T23:29:37.205Z,19.99
2017-02-23T23:34:53.099Z,19.88
2017-02-23T23:40:08.765Z,19.89
2017-02-23T23:45:26.571Z,19.86
2017-02-23T23:50:43.950Z,19.79
2017-02-23T23:55:59.542Z,19.82
